createdAt,value
2022-11-07T00:01:16.987Z,3.80
2022-11-07T00:03:50.492Z,3.80
2022-11-07T00:06:24.357Z,3.80
2022-11-07T00:09:01.505Z,3.80
2022-11-07T00:11:35.295Z,3.90
2022-11-07T00:14:09.568Z,3.90
2022-11-07T00:16:43.489Z,3.90
2022-11-07T00:19:17.700Z,3.90
2022-11-07T00:21:52.345Z,4.00
2022-11-07T00:24:30.495Z,4.10
2022-11-07T00:27:04.974Z,4.00
2022-11-07T00:29:39.767Z,5.00
2022-11-07T00:32:13.352Z,4.00
2022-11-07T00:34:47.352Z,4.00
2022-11-07T00:37:21.898Z,4.10
2022-11-07T00:39:58.461Z,4.10
2022-11-07T00:42:32.428Z,4.10
2022-11-07T00:45:07.219Z,4.10
2022-11-07T00:47:41.590Z,4.10
2022-11-07T00:50:15.522Z,4.10
2022-11-07T00:52:49.441Z,4.10
2022-11-07T00:55:26.421Z,4.00
2022-11-07T00:58:00.424Z,4.00
2022-11-07T01:00:34.681Z,4.00
2022-11-07T01:03:20.734Z,4.00
2022-11-07T01:06:01.866Z,4.00
2022-11-07T01:08:35.445Z,4.00
2022-11-07T01:11:12.033Z,4.00
2022-11-07T01:13:45.504Z,4.00
2022-11-07T01:16:20.352Z,4.00
2022-11-07T01:18:56.818Z,4.00
2022-11-07T01:21:32.072Z,3.90
2022-11-07T01:24:13.032Z,3.90
2022-11-07T01:26:52.016Z,3.90
2022-11-07T01:29:26.317Z,3.80
2022-11-07T01:32:00.766Z,3.80
2022-11-07T01:34:34.511Z,3.70
2022-11-07T01:37:08.969Z,3.70
2022-11-07T01:39:43.891Z,3.60
2022-11-07T01:42:21.767Z,3.60
2022-11-07T01:44:56.823Z,3.60
2022-11-07T01:47:31.474Z,3.60
2022-11-07T01:50:05.690Z,3.60
2022-11-07T01:52:40.074Z,3.60
2022-11-07T01:55:14.275Z,3.60
2022-11-07T01:57:53.635Z,3.60
2022-11-07T02:00:28.118Z,3.50
2022-11-07T02:03:04.259Z,3.50
2022-11-07T02:05:38.922Z,3.50
2022-11-07T02:08:13.077Z,3.40
2022-11-07T02:10:46.071Z,3.40
2022-11-07T02:13:23.345Z,3.40
2022-11-07T02:15:59.686Z,3.40
2022-11-07T02:18:36.498Z,3.40
2022-11-07T02:21:12.034Z,3.50
2022-11-07T02:23:48.303Z,3.50
2022-11-07T02:26:25.067Z,3.50
2022-11-07T02:29:00.777Z,3.50
2022-11-07T02:31:34.492Z,3.50
2022-11-07T02:34:09.350Z,3.50
2022-11-07T02:36:44.221Z,3.40
2022-11-07T02:39:18.617Z,3.40
2022-11-07T02:41:55.609Z,3.40
2022-11-07T02:44:30.251Z,3.50
2022-11-07T02:47:06.102Z,3.50
2022-11-07T02:49:41.288Z,3.60
2022-11-07T02:52:15.574Z,3.60
2022-11-07T02:54:50.383Z,3.60
2022-11-07T02:57:27.537Z,3.60
2022-11-07T03:00:01.618Z,3.70
2022-11-07T03:02:47.367Z,3.70
2022-11-07T03:05:22.648Z,3.70
2022-11-07T03:07:57.243Z,3.80
2022-11-07T03:10:32.313Z,3.80
2022-11-07T03:13:10.129Z,3.80
2022-11-07T03:15:44.473Z,3.80
2022-11-07T03:18:18.678Z,3.90
2022-11-07T03:20:53.021Z,3.90
2022-11-07T03:23:27.093Z,3.90
2022-11-07T03:26:00.089Z,3.90
2022-11-07T03:28:38.672Z,4.00
2022-11-07T03:31:12.989Z,4.00
2022-11-07T03:33:48.988Z,4.00
2022-11-07T03:36:26.229Z,4.00
2022-11-07T03:39:06.348Z,4.00
2022-11-07T03:41:40.881Z,4.00
2022-11-07T03:44:17.379Z,4.10
2022-11-07T03:46:53.679Z,4.00
2022-11-07T03:49:30.376Z,4.10
2022-11-07T03:52:07.621Z,4.10
2022-11-07T03:54:46.516Z,4.10
2022-11-07T03:57:20.671Z,4.10
2022-11-07T03:59:58.895Z,4.10
2022-11-07T04:02:33.642Z,4.10
2022-11-07T04:05:09.294Z,4.20
2022-11-07T04:07:43.778Z,4.10
2022-11-07T04:10:18.340Z,4.10
2022-11-07T04:13:07.651Z,4.10
2022-11-07T04:15:59.517Z,4.10
2022-11-07T04:18:33.507Z,4.10
2022-11-07T04:21:08.223Z,4.10
2022-11-07T04:23:47.192Z,4.10
2022-11-07T04:26:34.246Z,4.10
2022-11-07T04:29:10.029Z,4.10
2022-11-07T04:31:51.789Z,4.20
2022-11-07T04:34:26.679Z,4.20
2022-11-07T04:37:01.002Z,4.20
2022-11-07T04:39:34.960Z,4.20
2022-11-07T04:42:09.326Z,4.20
2022-11-07T04:44:44.294Z,4.30
2022-11-07T04:47:23.061Z,4.30
2022-11-07T04:49:58.279Z,4.30
2022-11-07T04:52:32.992Z,4.30
2022-11-07T04:55:07.088Z,4.90
2022-11-07T04:57:40.321Z,4.30
2022-11-07T05:00:13.574Z,4.40
2022-11-07T05:02:50.879Z,4.40
2022-11-07T05:05:24.931Z,4.40
2022-11-07T05:07:59.406Z,4.40
2022-11-07T05:10:30.294Z,4.40
2022-11-07T05:13:07.234Z,4.40
2022-11-07T05:15:42.131Z,4.40
2022-11-07T05:18:21.404Z,4.50
2022-11-07T05:20:56.689Z,4.50
2022-11-07T05:23:28.822Z,4.50
2022-11-07T05:26:03.000Z,4.50
2022-11-07T05:28:39.758Z,4.60
2022-11-07T05:31:15.469Z,4.60
2022-11-07T05:33:53.862Z,4.60
2022-11-07T05:36:28.961Z,4.60
2022-11-07T05:39:02.570Z,4.70
2022-11-07T05:41:39.229Z,4.70
2022-11-07T05:44:14.184Z,4.70
2022-11-07T05:46:51.671Z,4.80
2022-11-07T05:49:28.967Z,4.80
2022-11-07T05:52:03.377Z,4.80
2022-11-07T05:54:41.336Z,4.90
2022-11-07T05:57:16.147Z,4.90
2022-11-07T06:00:00.475Z,4.90
2022-11-07T06:02:35.922Z,4.90
2022-11-07T06:05:12.450Z,5.00
2022-11-07T06:07:49.907Z,5.00
2022-11-07T06:10:23.851Z,5.00
2022-11-07T06:13:02.436Z,5.10
2022-11-07T06:15:38.345Z,5.10
2022-11-07T06:18:15.587Z,5.60
2022-11-07T06:20:50.245Z,5.10
2022-11-07T06:23:29.424Z,5.20
2022-11-07T06:26:04.345Z,5.20
2022-11-07T06:28:38.593Z,5.30
2022-11-07T06:31:13.111Z,5.30
2022-11-07T06:33:46.990Z,5.30
2022-11-07T06:36:22.142Z,5.30
2022-11-07T06:38:57.599Z,5.40
2022-11-07T06:41:33.062Z,5.40
2022-11-07T06:44:07.908Z,5.40
2022-11-07T06:46:42.261Z,5.40
2022-11-07T06:49:17.073Z,5.50
2022-11-07T06:51:55.002Z,5.50
2022-11-07T06:54:31.730Z,5.50
2022-11-07T06:57:07.548Z,5.60
2022-11-07T06:59:41.523Z,5.60
2022-11-07T07:02:30.841Z,5.70
2022-11-07T07:05:15.939Z,5.70
2022-11-07T07:07:53.127Z,5.70
2022-11-07T07:10:28.967Z,5.80
2022-11-07T07:13:04.844Z,5.80
2022-11-07T07:15:50.277Z,5.90
2022-11-07T07:18:26.861Z,5.90
2022-11-07T07:21:05.323Z,5.90
2022-11-07T07:23:43.523Z,6.00
2022-11-07T07:26:21.403Z,6.00
2022-11-07T07:28:56.872Z,6.10
2022-11-07T07:31:33.162Z,6.20
2022-11-07T07:34:05.626Z,6.40
2022-11-07T07:36:41.418Z,6.40
2022-11-07T07:39:17.755Z,6.50
2022-11-07T07:41:54.537Z,6.60
2022-11-07T07:44:32.447Z,7.40
2022-11-07T07:47:11.770Z,6.60
2022-11-07T07:49:47.012Z,6.70
2022-11-07T07:52:20.673Z,6.70
2022-11-07T07:54:56.270Z,6.70
2022-11-07T07:57:31.213Z,6.80
2022-11-07T08:00:08.939Z,6.80
2022-11-07T08:02:49.141Z,6.80
2022-11-07T08:05:22.033Z,6.90
2022-11-07T08:07:56.331Z,6.90
2022-11-07T08:10:41.926Z,7.00
2022-11-07T08:13:18.343Z,7.10
2022-11-07T08:15:57.563Z,7.10
2022-11-07T08:18:32.243Z,7.20
2022-11-07T08:21:09.013Z,7.30
2022-11-07T08:23:46.002Z,7.40
2022-11-07T08:26:20.349Z,7.50
2022-11-07T08:28:57.274Z,7.60
2022-11-07T08:31:35.233Z,7.70
2022-11-07T08:34:11.469Z,7.80
2022-11-07T08:36:45.887Z,7.90
2022-11-07T08:39:20.497Z,8.00
2022-11-07T08:42:00.975Z,8.20
2022-11-07T08:44:37.200Z,9.00
2022-11-07T08:47:13.080Z,8.30
2022-11-07T08:49:47.116Z,8.50
2022-11-07T08:52:21.545Z,8.50
2022-11-07T08:54:58.221Z,8.60
2022-11-07T08:57:30.734Z,8.70
2022-11-07T09:00:04.728Z,9.20
2022-11-07T09:05:35.892Z,8.80
2022-11-07T09:08:09.820Z,8.90
2022-11-07T09:10:44.037Z,9.00
2022-11-07T09:13:19.150Z,9.00
2022-11-07T09:15:58.259Z,9.10
2022-11-07T09:18:35.897Z,9.10
2022-11-07T09:21:19.133Z,9.20
2022-11-07T09:23:57.202Z,9.30
2022-11-07T09:26:32.543Z,9.40
2022-11-07T09:29:10.656Z,9.40
2022-11-07T09:31:45.728Z,9.50
2022-11-07T09:34:23.765Z,9.60
2022-11-07T09:36:58.380Z,9.70
2022-11-07T09:39:33.360Z,9.70
2022-11-07T09:42:11.849Z,9.80
2022-11-07T09:44:53.771Z,9.90
2022-11-07T09:47:29.858Z,10.00
2022-11-07T09:50:07.594Z,10.10
2022-11-07T09:52:42.531Z,10.20
2022-11-07T09:55:19.049Z,10.30
2022-11-07T09:57:53.756Z,10.40
2022-11-07T10:00:29.679Z,10.50
2022-11-07T10:03:04.115Z,10.50
2022-11-07T10:05:44.098Z,10.60
2022-11-07T10:08:23.190Z,10.70
2022-11-07T10:10:57.869Z,10.80
2022-11-07T10:13:49.009Z,10.90
2022-11-07T10:16:24.573Z,10.90
2022-11-07T10:19:05.325Z,11.00
2022-11-07T10:21:43.789Z,11.00
2022-11-07T10:24:25.534Z,11.10
2022-11-07T10:27:00.821Z,11.10
2022-11-07T10:29:44.245Z,11.20
2022-11-07T10:32:21.264Z,11.20
2022-11-07T10:34:55.504Z,11.30
2022-11-07T10:37:33.030Z,11.30
2022-11-07T10:40:13.704Z,11.40
2022-11-07T10:42:48.862Z,11.50
2022-11-07T10:45:22.506Z,11.60
2022-11-07T10:48:01.387Z,11.60
2022-11-07T10:50:36.011Z,11.60
2022-11-07T10:53:19.652Z,11.70
2022-11-07T10:55:54.700Z,11.70
2022-11-07T10:58:29.224Z,11.70
2022-11-07T11:01:04.819Z,11.80
2022-11-07T11:03:44.888Z,11.80
2022-11-07T11:06:28.225Z,11.80
2022-11-07T11:09:02.361Z,11.90
2022-11-07T11:11:39.938Z,11.90
2022-11-07T11:14:14.469Z,12.00
2022-11-07T11:16:51.085Z,12.10
2022-11-07T11:19:34.994Z,12.20
2022-11-07T11:22:13.158Z,12.30
2022-11-07T11:24:46.273Z,12.40
2022-11-07T11:27:23.912Z,12.40
2022-11-07T11:29:58.246Z,12.50
2022-11-07T11:32:35.431Z,12.50
2022-11-07T11:35:12.533Z,12.50
2022-11-07T11:37:47.578Z,12.50
2022-11-07T11:40:22.528Z,12.50
2022-11-07T11:43:01.764Z,12.60
2022-11-07T11:45:38.246Z,12.50
2022-11-07T11:48:14.154Z,12.50
2022-11-07T11:50:47.360Z,12.60
2022-11-07T11:53:22.385Z,12.60
2022-11-07T11:55:57.492Z,12.60
2022-11-07T11:58:39.601Z,12.60
2022-11-07T12:01:16.367Z,12.70
2022-11-07T12:04:03.906Z,12.80
2022-11-07T12:06:40.626Z,12.80
2022-11-07T12:09:22.707Z,12.90
2022-11-07T12:11:59.893Z,13.00
2022-11-07T12:14:57.805Z,13.00
2022-11-07T12:17:36.656Z,13.10
2022-11-07T12:20:14.806Z,13.10
2022-11-07T12:22:51.634Z,13.10
2022-11-07T12:25:28.623Z,13.20
2022-11-07T12:28:05.349Z,13.10
2022-11-07T12:30:41.287Z,13.10
2022-11-07T12:33:22.019Z,13.10
2022-11-07T12:35:56.515Z,13.10
2022-11-07T12:38:40.296Z,13.10
2022-11-07T12:41:17.530Z,13.10
2022-11-07T12:43:57.239Z,13.10
2022-11-07T12:46:30.605Z,13.10
2022-11-07T12:49:15.641Z,13.10
2022-11-07T12:51:51.632Z,13.10
2022-11-07T12:54:32.150Z,13.00
2022-11-07T12:57:06.601Z,13.00
2022-11-07T12:59:40.944Z,13.00
2022-11-07T13:02:19.468Z,12.90
2022-11-07T13:04:57.345Z,13.00
2022-11-07T13:07:35.589Z,12.90
2022-11-07T13:10:12.896Z,12.90
2022-11-07T13:12:48.091Z,12.90
2022-11-07T13:15:21.827Z,12.80
2022-11-07T13:17:57.031Z,12.80
2022-11-07T13:20:34.878Z,12.80
2022-11-07T13:23:16.903Z,12.70
2022-11-07T13:25:51.259Z,12.70
2022-11-07T13:28:42.739Z,12.70
2022-11-07T13:31:31.820Z,12.70
2022-11-07T13:34:14.910Z,12.60
2022-11-07T13:36:51.749Z,12.60
2022-11-07T13:39:27.137Z,12.70
2022-11-07T13:42:01.582Z,12.60
2022-11-07T13:44:36.774Z,12.60
2022-11-07T13:47:15.145Z,12.60
2022-11-07T13:49:49.066Z,12.60
2022-11-07T13:52:25.885Z,12.60
2022-11-07T13:55:02.093Z,12.60
2022-11-07T13:57:37.314Z,12.60
2022-11-07T14:00:15.187Z,12.60
2022-11-07T14:02:53.513Z,12.50
2022-11-07T14:05:28.648Z,12.50
2022-11-07T14:08:06.842Z,12.50
2022-11-07T14:10:42.852Z,12.40
2022-11-07T14:13:18.112Z,12.40
2022-11-07T14:15:53.357Z,12.40
2022-11-07T14:18:30.823Z,12.30
2022-11-07T14:21:06.211Z,12.30
2022-11-07T14:23:35.439Z,12.30
2022-11-07T14:26:18.905Z,12.30
2022-11-07T14:28:57.946Z,12.20
2022-11-07T14:31:35.263Z,12.20
2022-11-07T14:34:19.551Z,12.20
2022-11-07T14:36:54.183Z,12.10
2022-11-07T14:39:27.951Z,12.10
2022-11-07T14:42:06.669Z,12.10
2022-11-07T14:44:53.720Z,12.00
2022-11-07T14:47:30.542Z,12.00
2022-11-07T14:50:05.085Z,12.00
2022-11-07T14:52:40.846Z,12.00
2022-11-07T14:55:19.265Z,12.00
2022-11-07T14:57:57.177Z,12.00
2022-11-07T15:00:30.016Z,12.00
2022-11-07T15:03:04.088Z,11.90
2022-11-07T15:05:46.068Z,11.90
2022-11-07T15:08:30.320Z,11.90
2022-11-07T15:11:04.614Z,11.80
2022-11-07T15:13:43.007Z,11.90
2022-11-07T15:16:17.804Z,11.80
2022-11-07T15:18:53.768Z,11.80
2022-11-07T15:21:32.069Z,11.70
2022-11-07T15:24:22.162Z,11.70
2022-11-07T15:27:01.113Z,11.70
2022-11-07T15:29:38.394Z,11.60
2022-11-07T15:32:15.927Z,11.60
2022-11-07T15:35:12.389Z,11.60
2022-11-07T15:37:54.671Z,11.50
2022-11-07T15:40:29.456Z,11.50
2022-11-07T15:43:05.830Z,11.40
2022-11-07T15:45:44.587Z,11.40
2022-11-07T15:48:20.985Z,11.40
2022-11-07T15:50:56.014Z,11.30
2022-11-07T15:53:30.595Z,11.30
2022-11-07T15:56:04.784Z,11.30
2022-11-07T15:58:41.391Z,11.30
2022-11-07T16:01:18.723Z,11.30
2022-11-07T16:03:52.796Z,11.30
2022-11-07T16:06:28.599Z,11.20
2022-11-07T16:09:02.527Z,11.20
2022-11-07T16:11:37.069Z,11.20
2022-11-07T16:14:36.780Z,11.20
2022-11-07T16:17:11.198Z,11.10
2022-11-07T16:19:45.046Z,11.10
2022-11-07T16:22:18.089Z,11.10
2022-11-07T16:24:51.938Z,11.10
2022-11-07T16:27:26.016Z,11.10
2022-11-07T16:30:00.184Z,11.10
2022-11-07T16:32:36.903Z,11.00
2022-11-07T16:35:11.722Z,11.00
2022-11-07T16:37:45.830Z,11.10
2022-11-07T16:40:19.751Z,11.00
2022-11-07T16:42:54.628Z,11.00
2022-11-07T16:45:30.628Z,11.00
2022-11-07T16:48:08.129Z,11.00
2022-11-07T16:50:42.259Z,11.00
2022-11-07T16:53:15.284Z,11.00
2022-11-07T16:55:53.477Z,11.00
2022-11-07T16:58:29.098Z,11.00
2022-11-07T17:01:06.985Z,10.90
2022-11-07T17:03:44.836Z,10.90
2022-11-07T17:06:22.658Z,10.90
2022-11-07T17:09:05.905Z,10.80
2022-11-07T17:11:43.502Z,10.80
2022-11-07T17:14:18.864Z,10.80
2022-11-07T17:16:52.718Z,10.70
2022-11-07T17:19:32.237Z,10.70
2022-11-07T17:22:07.675Z,10.70
2022-11-07T17:24:43.545Z,10.60
2022-11-07T17:27:24.312Z,10.60
2022-11-07T17:30:01.965Z,10.60
2022-11-07T17:32:36.133Z,10.50
2022-11-07T17:35:31.806Z,10.50
2022-11-07T17:38:08.534Z,10.40
2022-11-07T17:40:43.730Z,10.40
2022-11-07T17:43:19.326Z,10.40
2022-11-07T17:45:54.163Z,10.30
2022-11-07T17:48:27.865Z,10.30
2022-11-07T17:51:04.743Z,10.30
2022-11-07T17:53:39.306Z,10.20
2022-11-07T17:56:13.253Z,10.20
2022-11-07T17:58:46.930Z,10.20
2022-11-07T18:01:23.295Z,10.20
2022-11-07T18:03:59.110Z,10.10
2022-11-07T18:06:37.447Z,10.10
2022-11-07T18:09:11.826Z,10.10
2022-11-07T18:11:45.780Z,10.10
2022-11-07T18:14:20.078Z,10.10
2022-11-07T18:16:53.380Z,10.10
2022-11-07T18:19:27.816Z,10.00
2022-11-07T18:22:04.136Z,10.00
2022-11-07T18:24:38.047Z,10.00
2022-11-07T18:27:11.700Z,10.00
2022-11-07T18:29:45.963Z,10.00
2022-11-07T18:32:19.797Z,9.90
2022-11-07T18:34:53.912Z,9.90
2022-11-07T18:37:30.137Z,9.80
2022-11-07T18:40:03.789Z,9.80
2022-11-07T18:42:38.765Z,9.80
2022-11-07T18:45:12.724Z,9.70
2022-11-07T18:47:49.454Z,9.70
2022-11-07T18:50:23.470Z,9.70
2022-11-07T18:53:00.338Z,9.70
2022-11-07T18:55:32.776Z,9.70
2022-11-07T18:58:06.771Z,9.60
2022-11-07T19:00:40.512Z,9.60
2022-11-07T19:03:15.201Z,9.50
2022-11-07T19:05:50.193Z,9.50
2022-11-07T19:08:26.751Z,9.50
2022-11-07T19:11:00.480Z,9.50
2022-11-07T19:13:34.436Z,9.50
2022-11-07T19:16:08.862Z,9.40
2022-11-07T19:18:46.633Z,9.40
2022-11-07T19:21:23.654Z,9.40
2022-11-07T19:24:00.985Z,9.40
2022-11-07T19:26:35.296Z,9.40
2022-11-07T19:29:10.136Z,9.40
2022-11-07T19:31:43.658Z,9.40
2022-11-07T19:34:18.386Z,9.40
2022-11-07T19:36:52.755Z,9.40
2022-11-07T19:39:32.468Z,9.40
2022-11-07T19:42:06.697Z,9.40
2022-11-07T19:44:46.322Z,9.30
2022-11-07T19:47:22.825Z,9.40
2022-11-07T19:49:56.826Z,9.40
2022-11-07T19:52:30.667Z,9.40
2022-11-07T19:55:08.136Z,9.40
2022-11-07T19:57:41.454Z,9.40
2022-11-07T20:00:17.490Z,9.40
2022-11-07T20:02:51.583Z,9.40
2022-11-07T20:05:28.104Z,9.40
2022-11-07T20:08:05.178Z,9.40
2022-11-07T20:10:42.454Z,9.40
2022-11-07T20:13:16.910Z,9.40
2022-11-07T20:15:50.314Z,9.30
2022-11-07T20:18:23.325Z,9.30
2022-11-07T20:21:04.520Z,9.30
2022-11-07T20:23:38.994Z,9.30
2022-11-07T20:26:16.958Z,9.30
2022-11-07T20:28:51.167Z,9.30
2022-11-07T20:31:26.581Z,9.30
2022-11-07T20:34:01.509Z,9.20
2022-11-07T20:36:38.342Z,9.20
2022-11-07T20:39:14.128Z,9.20
2022-11-07T20:41:50.590Z,9.10
2022-11-07T20:44:25.614Z,9.10
2022-11-07T20:46:59.943Z,9.10
2022-11-07T20:49:35.373Z,9.30
2022-11-07T20:52:12.595Z,9.00
2022-11-07T20:54:47.054Z,8.90
2022-11-07T20:57:26.994Z,8.90
2022-11-07T21:00:00.839Z,8.80
2022-11-07T21:02:40.735Z,8.80
2022-11-07T21:05:18.239Z,9.00
2022-11-07T21:07:53.321Z,8.70
2022-11-07T21:10:30.911Z,8.70
2022-11-07T21:13:08.703Z,8.60
2022-11-07T21:15:44.071Z,9.20
2022-11-07T21:18:20.746Z,9.20
2022-11-07T21:20:58.104Z,8.60
2022-11-07T21:23:34.808Z,8.60
2022-11-07T21:26:09.923Z,8.60
2022-11-07T21:28:48.081Z,8.50
2022-11-07T21:31:24.463Z,8.50
2022-11-07T21:33:59.250Z,8.40
2022-11-07T21:36:34.055Z,8.30
2022-11-07T21:39:08.233Z,8.20
2022-11-07T21:41:42.276Z,8.20
2022-11-07T21:44:19.433Z,8.10
2022-11-07T21:46:54.456Z,8.10
2022-11-07T21:49:29.416Z,8.90
2022-11-07T21:52:04.778Z,8.00
2022-11-07T21:54:38.948Z,8.00
2022-11-07T21:57:13.209Z,7.90
2022-11-07T21:59:50.660Z,7.80
2022-11-07T22:02:24.857Z,7.70
2022-11-07T22:04:59.668Z,7.70
2022-11-07T22:07:35.187Z,7.70
2022-11-07T22:10:10.235Z,7.70
2022-11-07T22:12:45.785Z,7.70
2022-11-07T22:15:22.796Z,7.70
2022-11-07T22:17:59.639Z,7.70
2022-11-07T22:20:34.224Z,7.60
2022-11-07T22:23:07.811Z,7.60
2022-11-07T22:25:42.195Z,7.50
2022-11-07T22:28:15.618Z,7.50
2022-11-07T22:30:52.161Z,7.70
2022-11-07T22:33:25.564Z,7.40
2022-11-07T22:36:02.168Z,7.40
2022-11-07T22:38:35.639Z,7.70
2022-11-07T22:41:11.331Z,7.40
2022-11-07T22:43:43.458Z,7.70
2022-11-07T22:46:21.921Z,7.30
2022-11-07T22:48:55.711Z,7.50
2022-11-07T22:51:31.549Z,7.30
2022-11-07T22:54:06.406Z,7.30
2022-11-07T22:56:40.530Z,7.30
2022-11-07T22:59:15.767Z,7.30
2022-11-07T23:01:52.596Z,7.20
2022-11-07T23:04:32.438Z,7.20
2022-11-07T23:07:07.795Z,7.20
2022-11-07T23:09:42.519Z,7.10
2022-11-07T23:12:17.170Z,7.10
2022-11-07T23:14:50.586Z,7.10
2022-11-07T23:17:27.459Z,7.10
2022-11-07T23:20:01.565Z,7.00
2022-11-07T23:22:35.689Z,7.00
2022-11-07T23:25:10.216Z,7.00
2022-11-07T23:27:43.775Z,7.00
2022-11-07T23:30:17.605Z,6.90
2022-11-07T23:32:54.605Z,6.90
2022-11-07T23:35:29.182Z,6.90
2022-11-07T23:38:02.637Z,6.90
2022-11-07T23:40:38.090Z,6.90
2022-11-07T23:43:13.527Z,6.90
2022-11-07T23:46:00.059Z,6.90
2022-11-07T23:48:49.028Z,6.80
2022-11-07T23:51:23.008Z,6.80
2022-11-07T23:54:08.994Z,6.70
2022-11-07T23:56:42.731Z,6.70
2022-11-07T23:59:29.125Z,6.70
